createdAt,value
2023-01-11T00:01:05.723Z,100674.06
2023-01-11T00:03:32.742Z,100681.66
2023-01-11T00:06:00.123Z,100667.56
2023-01-11T00:08:27.846Z,100663.81
2023-01-11T00:10:54.875Z,100660.88
2023-01-11T00:13:21.556Z,100658.88
2023-01-11T00:15:47.991Z,100657.72
2023-01-11T00:18:14.404Z,100658.34
2023-01-11T00:20:41.748Z,100665.97
2023-01-11T00:23:08.721Z,100658.00
2023-01-11T00:25:35.877Z,100648.06
2023-01-11T00:28:02.272Z,100654.50
2023-01-11T00:30:28.634Z,100650.94
2023-01-11T00:32:59.170Z,100650.56
2023-01-11T00:35:27.062Z,100653.78
2023-01-11T00:37:54.429Z,100651.00
2023-01-11T00:40:21.682Z,100645.47
2023-01-11T00:43:06.706Z,100646.25
2023-01-11T00:45:51.541Z,100641.06
2023-01-11T00:48:17.953Z,100643.66
2023-01-11T00:50:44.329Z,100639.91
2023-01-11T00:53:10.719Z,100635.53
2023-01-11T00:55:37.365Z,100624.97
2023-01-11T00:58:04.204Z,100629.00
2023-01-11T01:00:31.052Z,100627.19
2023-01-11T01:02:57.639Z,100618.09
2023-01-11T01:05:24.049Z,100624.84
2023-01-11T01:07:51.678Z,100625.28
2023-01-11T01:10:20.409Z,100626.72
2023-01-11T01:13:05.958Z,100626.56
2023-01-11T01:15:33.174Z,100622.16
2023-01-11T01:17:59.744Z,100623.78
2023-01-11T01:20:26.335Z,100630.41
2023-01-11T01:22:52.844Z,100629.22
2023-01-11T01:25:19.307Z,100635.84
2023-01-11T01:27:45.769Z,100629.84
2023-01-11T01:30:12.436Z,100632.25
2023-01-11T01:32:39.227Z,100638.06
2023-01-11T01:35:05.954Z,100635.47
2023-01-11T01:37:32.357Z,100643.88
2023-01-11T01:39:58.753Z,100642.88
2023-01-11T01:42:25.352Z,100634.91
2023-01-11T01:44:56.912Z,100633.75
2023-01-11T01:47:32.704Z,100635.19
2023-01-11T01:50:02.677Z,100632.41
2023-01-11T01:52:30.697Z,100636.78
2023-01-11T01:55:05.468Z,100642.59
2023-01-11T01:57:34.952Z,100636.41
2023-01-11T02:00:06.010Z,100626.81
2023-01-11T02:02:33.592Z,100638.81
2023-01-11T02:05:00.306Z,100635.25
2023-01-11T02:07:31.789Z,100643.66
2023-01-11T02:10:08.710Z,100651.44
2023-01-11T02:12:40.450Z,100645.28
2023-01-11T02:15:09.367Z,100639.06
2023-01-11T02:17:35.836Z,100643.28
2023-01-11T02:20:27.094Z,100642.13
2023-01-11T02:23:31.359Z,100649.69
2023-01-11T02:26:19.566Z,100645.34
2023-01-11T02:29:05.867Z,100641.53
2023-01-11T02:31:47.331Z,100639.78
2023-01-11T02:34:50.407Z,100647.19
2023-01-11T02:37:29.049Z,100641.81
2023-01-11T02:40:21.481Z,100627.22
2023-01-11T02:43:35.742Z,100640.03
2023-01-11T02:46:10.973Z,100639.00
2023-01-11T02:48:59.054Z,100639.69
2023-01-11T02:51:43.219Z,100643.69
2023-01-11T02:54:12.396Z,100653.09
2023-01-11T02:56:44.723Z,100645.31
2023-01-11T02:59:16.405Z,100643.31
2023-01-11T03:01:52.602Z,100660.50
2023-01-11T03:04:27.729Z,100669.09
2023-01-11T03:07:06.622Z,100669.94
2023-01-11T03:09:45.141Z,100655.56
2023-01-11T03:12:51.780Z,100659.78
2023-01-11T03:15:29.965Z,100663.59
2023-01-11T03:18:24.250Z,100677.41
2023-01-11T03:21:00.102Z,100672.81
2023-01-11T03:23:41.606Z,100676.22
2023-01-11T03:26:48.007Z,100699.59
2023-01-11T03:29:26.333Z,100681.41
2023-01-11T03:31:58.735Z,100682.03
2023-01-11T03:34:32.035Z,100669.22
2023-01-11T03:37:10.678Z,100675.22
2023-01-11T03:40:06.455Z,100682.84
2023-01-11T03:42:35.124Z,100680.25
2023-01-11T03:45:03.409Z,100690.44
2023-01-11T03:47:32.848Z,100681.84
2023-01-11T03:50:11.404Z,100677.84
2023-01-11T03:52:42.288Z,100676.22
2023-01-11T03:55:12.355Z,100683.22
2023-01-11T03:57:51.145Z,100689.03
2023-01-11T04:00:22.388Z,100681.22
2023-01-11T04:02:49.280Z,100687.63
2023-01-11T04:05:15.683Z,100688.59
2023-01-11T04:07:42.054Z,100696.38
2023-01-11T04:10:09.099Z,100682.59
2023-01-11T04:12:35.452Z,100684.00
2023-01-11T04:15:05.241Z,100692.81
2023-01-11T04:17:32.363Z,100701.41
2023-01-11T04:19:58.716Z,100704.78
2023-01-11T04:22:25.104Z,100700.19
2023-01-11T04:24:51.440Z,100706.41
2023-01-11T04:27:17.782Z,100709.00
2023-01-11T04:29:44.133Z,100728.16
2023-01-11T04:32:10.737Z,100722.34
2023-01-11T04:34:37.076Z,100723.16
2023-01-11T04:37:03.630Z,100722.34
2023-01-11T04:39:30.009Z,100725.94
2023-01-11T04:42:15.085Z,100719.94
2023-01-11T04:44:41.526Z,100725.94
2023-01-11T04:47:07.936Z,100731.13
2023-01-11T04:49:34.407Z,100730.16
2023-01-11T04:52:00.765Z,100731.56
2023-01-11T04:54:27.228Z,100729.34
2023-01-11T04:56:53.613Z,100736.31
2023-01-11T04:59:19.988Z,100743.50
2023-01-11T05:01:46.337Z,100745.50
2023-01-11T05:04:13.574Z,100743.69
2023-01-11T05:06:40.164Z,100751.47
2023-01-11T05:09:12.060Z,100748.09
2023-01-11T05:11:38.429Z,100748.25
2023-01-11T05:14:04.899Z,100750.03
2023-01-11T05:16:31.357Z,100745.84
2023-01-11T05:18:59.691Z,100753.66
2023-01-11T05:21:28.986Z,100762.41
2023-01-11T05:23:55.353Z,100759.03
2023-01-11T05:26:27.940Z,100761.81
2023-01-11T05:28:56.226Z,100767.97
2023-01-11T05:31:23.479Z,100770.94
2023-01-11T05:33:49.995Z,100773.53
2023-01-11T05:36:21.954Z,100779.91
2023-01-11T05:38:50.626Z,100775.84
2023-01-11T05:41:18.390Z,100788.81
2023-01-11T05:44:05.463Z,100787.59
2023-01-11T05:46:33.773Z,100783.72
2023-01-11T05:49:00.430Z,100781.94
2023-01-11T05:51:30.459Z,100780.53
2023-01-11T05:54:01.078Z,100794.03
2023-01-11T05:56:28.273Z,100795.00
2023-01-11T05:58:55.208Z,100793.41
2023-01-11T06:01:23.399Z,100798.44
2023-01-11T06:03:49.942Z,100805.41
2023-01-11T06:06:17.855Z,100793.41
2023-01-11T06:08:44.254Z,100801.38
2023-01-11T06:11:10.912Z,100801.56
2023-01-11T06:13:37.467Z,100803.72
2023-01-11T06:16:15.378Z,100809.25
2023-01-11T06:18:45.028Z,100808.78
2023-01-11T06:21:12.956Z,100826.34
2023-01-11T06:23:42.193Z,100820.72
2023-01-11T06:26:12.283Z,100831.28
2023-01-11T06:28:39.038Z,100833.25
2023-01-11T06:31:06.131Z,100832.59
2023-01-11T06:33:33.001Z,100843.97
2023-01-11T06:36:02.345Z,100847.72
2023-01-11T06:38:28.817Z,100841.91
2023-01-11T06:41:03.364Z,100845.66
2023-01-11T06:43:31.159Z,100841.63
2023-01-11T06:45:58.830Z,100851.19
2023-01-11T06:48:26.294Z,100854.00
2023-01-11T06:50:54.623Z,100855.94
2023-01-11T06:53:22.257Z,100851.91
2023-01-11T06:55:53.169Z,100872.84
2023-01-11T06:58:20.369Z,100880.63
2023-01-11T07:00:47.133Z,100877.38
2023-01-11T07:03:13.769Z,100870.78
2023-01-11T07:05:41.184Z,100887.31
2023-01-11T07:08:11.803Z,100885.72
2023-01-11T07:10:38.617Z,100889.44
2023-01-11T07:13:05.164Z,100884.25
2023-01-11T07:15:31.649Z,100887.81
2023-01-11T07:18:00.167Z,100893.38
2023-01-11T07:20:27.506Z,100903.13
2023-01-11T07:22:58.322Z,100907.84
2023-01-11T07:25:25.887Z,100917.75
2023-01-11T07:28:00.922Z,100922.84
2023-01-11T07:30:29.609Z,100940.88
2023-01-11T07:32:58.675Z,100936.38
2023-01-11T07:35:28.178Z,100946.63
2023-01-11T07:37:56.371Z,100943.88
2023-01-11T07:40:22.881Z,100946.50
2023-01-11T07:43:09.500Z,100950.44
2023-01-11T07:45:45.471Z,100955.16
2023-01-11T07:48:13.157Z,100952.72
2023-01-11T07:50:42.247Z,100951.09
2023-01-11T07:53:09.947Z,100954.34
2023-01-11T07:55:36.476Z,100956.66
2023-01-11T07:58:03.148Z,100965.72
2023-01-11T08:00:30.256Z,100973.03
2023-01-11T08:02:56.891Z,100970.25
2023-01-11T08:05:24.759Z,100973.50
2023-01-11T08:07:51.418Z,100974.31
2023-01-11T08:10:18.242Z,100986.63
2023-01-11T08:13:07.259Z,100993.13
2023-01-11T08:15:36.645Z,100997.53
2023-01-11T08:18:06.628Z,101000.75
2023-01-11T08:20:33.481Z,101002.22
2023-01-11T08:23:07.077Z,101001.28
2023-01-11T08:25:33.976Z,101001.09
2023-01-11T08:28:02.125Z,101003.22
2023-01-11T08:30:29.734Z,101020.19
2023-01-11T08:32:57.816Z,101025.03
2023-01-11T08:35:27.458Z,101027.94
2023-01-11T08:37:53.947Z,101043.97
2023-01-11T08:40:23.872Z,101051.88
2023-01-11T08:42:55.550Z,101061.59
2023-01-11T08:45:22.130Z,101058.22
2023-01-11T08:47:50.734Z,101066.78
2023-01-11T08:50:18.651Z,101073.38
2023-01-11T08:52:45.903Z,101067.72
2023-01-11T08:55:12.524Z,101076.78
2023-01-11T08:57:39.124Z,101081.28
2023-01-11T09:00:07.442Z,101079.03
2023-01-11T09:02:34.844Z,101081.59
2023-01-11T09:05:01.340Z,101079.03
2023-01-11T09:07:27.809Z,101075.78
2023-01-11T09:09:56.604Z,101079.19
2023-01-11T09:12:23.127Z,101090.66
2023-01-11T09:14:49.594Z,101087.44
2023-01-11T09:17:15.996Z,101086.59
2023-01-11T09:19:42.900Z,101080.94
2023-01-11T09:22:09.359Z,101082.75
2023-01-11T09:24:35.764Z,101090.34
2023-01-11T09:27:02.184Z,101087.28
2023-01-11T09:29:28.740Z,101099.41
2023-01-11T09:31:55.383Z,101097.00
2023-01-11T09:34:22.190Z,101093.78
2023-01-11T09:36:49.230Z,101099.94
2023-01-11T09:39:18.733Z,101100.09
2023-01-11T09:41:45.159Z,101097.19
2023-01-11T09:44:20.258Z,101106.75
2023-01-11T09:46:56.411Z,101108.56
2023-01-11T09:49:29.706Z,101115.69
2023-01-11T09:52:11.039Z,101105.16
2023-01-11T09:54:37.535Z,101101.28
2023-01-11T09:57:23.777Z,101103.03
2023-01-11T10:00:00.699Z,101099.34
2023-01-11T10:03:04.877Z,101110.34
2023-01-11T10:05:58.837Z,101108.06
2023-01-11T10:18:28.985Z,101124.75
2023-01-11T10:18:53.356Z,101120.53
2023-01-11T10:21:36.509Z,101120.84
2023-01-11T10:24:14.791Z,101128.28
2023-01-11T10:26:41.984Z,101119.72
2023-01-11T10:29:18.673Z,101118.41
2023-01-11T10:32:10.449Z,101116.97
2023-01-11T10:35:01.826Z,101122.94
2023-01-11T10:37:48.072Z,101128.09
2023-01-11T10:41:00.408Z,101136.69
2023-01-11T10:43:29.620Z,101131.16
2023-01-11T10:46:00.764Z,101139.88
2023-01-11T10:48:40.268Z,101142.16
2023-01-11T10:51:29.844Z,101135.34
2023-01-11T10:54:20.124Z,101134.66
2023-01-11T10:57:02.906Z,101138.19
2023-01-11T10:59:56.284Z,101132.03
2023-01-11T11:02:47.122Z,101139.81
2023-01-11T11:05:27.932Z,101133.81
2023-01-11T11:08:00.606Z,101139.13
2023-01-11T11:10:44.879Z,101139.09
2023-01-11T11:13:43.461Z,101139.72
2023-01-11T11:16:38.703Z,101137.09
2023-01-11T11:19:05.258Z,101140.09
2023-01-11T11:21:37.300Z,101137.69
2023-01-11T11:24:19.729Z,101134.63
2023-01-11T11:26:53.695Z,101129.72
2023-01-11T11:29:23.189Z,101135.72
2023-01-11T11:31:50.941Z,101123.25
2023-01-11T11:34:20.744Z,101137.09
2023-01-11T11:36:50.188Z,101134.19
2023-01-11T11:39:30.702Z,101139.72
2023-01-11T11:42:06.156Z,101132.56
2023-01-11T11:44:32.897Z,101127.97
2023-01-11T11:47:05.266Z,101121.44
2023-01-11T11:49:33.549Z,101126.63
2023-01-11T11:52:01.750Z,101131.34
2023-01-11T11:54:35.431Z,101141.06
2023-01-11T11:57:30.969Z,101141.59
2023-01-11T12:00:16.351Z,101150.69
2023-01-11T12:02:50.628Z,101154.97
2023-01-11T12:05:17.117Z,101151.75
2023-01-11T12:07:54.825Z,101149.66
2023-01-11T12:10:28.042Z,101148.84
2023-01-11T12:12:57.926Z,101154.03
2023-01-11T12:15:27.051Z,101155.81
2023-01-11T12:17:54.982Z,101155.00
2023-01-11T12:20:27.367Z,101154.69
2023-01-11T12:23:19.071Z,101163.78
2023-01-11T12:26:23.132Z,101153.66
2023-01-11T12:29:04.626Z,101155.69
2023-01-11T12:31:52.412Z,101147.97
2023-01-11T12:34:53.654Z,101149.53
2023-01-11T12:37:55.601Z,101127.47
2023-01-11T12:40:35.982Z,101127.81
2023-01-11T12:43:28.123Z,101132.94
2023-01-11T12:46:16.423Z,101147.22
2023-01-11T12:49:12.176Z,101149.09
2023-01-11T12:52:03.501Z,101165.38
2023-01-11T12:55:01.712Z,101160.06
2023-01-11T12:57:54.024Z,101161.16
2023-01-11T13:00:42.351Z,101168.16
2023-01-11T13:03:23.873Z,101171.53
2023-01-11T13:06:18.255Z,101178.69
2023-01-11T13:09:03.524Z,101164.75
2023-01-11T13:11:40.153Z,101171.25
2023-01-11T13:14:25.376Z,101171.03
2023-01-11T13:16:56.952Z,101172.97
2023-01-11T13:19:34.881Z,101173.59
2023-01-11T13:22:04.737Z,101164.56
2023-01-11T13:24:32.920Z,101160.41
2023-01-11T13:27:07.296Z,101156.06
2023-01-11T13:29:37.740Z,101150.56
2023-01-11T13:32:11.246Z,101157.06
2023-01-11T13:34:48.403Z,101143.75
2023-01-11T13:37:25.662Z,101141.63
2023-01-11T13:40:15.533Z,101142.75
2023-01-11T13:42:47.626Z,101152.56
2023-01-11T13:45:27.638Z,101132.59
2023-01-11T13:47:58.854Z,101123.56
2023-01-11T13:50:31.688Z,101130.34
2023-01-11T13:53:19.853Z,101125.16
2023-01-11T13:56:03.082Z,101119.00
2023-01-11T13:58:40.434Z,101118.22
2023-01-11T14:01:14.989Z,101129.84
2023-01-11T14:03:47.999Z,101119.34
2023-01-11T14:06:36.683Z,101129.13
2023-01-11T14:09:54.613Z,101132.69
2023-01-11T14:12:33.501Z,101138.34
2023-01-11T14:15:27.337Z,101138.66
2023-01-11T14:18:18.685Z,101126.00
2023-01-11T14:21:13.619Z,101146.25
2023-01-11T14:23:52.333Z,101149.19
2023-01-11T14:26:40.878Z,101142.94
2023-01-11T14:29:27.479Z,101134.91
2023-01-11T14:32:31.389Z,101135.13
2023-01-11T14:35:48.609Z,101146.47
2023-01-11T14:38:27.603Z,101137.44
2023-01-11T14:40:53.971Z,101145.06
2023-01-11T14:43:32.494Z,101140.53
2023-01-11T14:46:23.910Z,101126.94
2023-01-11T14:49:20.665Z,101132.78
2023-01-11T14:51:59.654Z,101132.00
2023-01-11T14:54:34.815Z,101134.91
2023-01-11T14:57:01.215Z,101132.81
2023-01-11T14:59:30.634Z,101127.16
2023-01-11T15:02:03.329Z,101138.00
2023-01-11T15:04:38.180Z,101142.72
2023-01-11T15:07:30.890Z,101146.75
2023-01-11T15:10:29.157Z,101146.09
2023-01-11T15:12:57.332Z,101144.63
2023-01-11T15:15:47.713Z,101143.84
2023-01-11T15:18:25.906Z,101152.25
2023-01-11T15:21:05.954Z,101146.75
2023-01-11T15:23:36.666Z,101150.97
2023-01-11T15:26:05.708Z,101153.56
2023-01-11T15:28:50.800Z,101159.84
2023-01-11T15:31:56.409Z,101151.63
2023-01-11T15:34:28.307Z,101163.44
2023-01-11T15:37:01.481Z,101163.44
2023-01-11T15:39:36.712Z,101153.09
2023-01-11T15:42:15.276Z,101160.03
2023-01-11T15:45:00.555Z,101165.84
2023-01-11T15:47:49.712Z,101171.28
2023-01-11T15:50:34.975Z,101184.22
2023-01-11T15:53:33.463Z,101176.13
2023-01-11T15:56:32.144Z,101180.19
2023-01-11T15:59:42.853Z,101181.00
2023-01-11T16:02:15.743Z,101177.44
2023-01-11T16:04:58.791Z,101188.28
2023-01-11T16:07:42.899Z,101186.16
2023-01-11T16:10:40.793Z,101187.13
2023-01-11T16:13:17.514Z,101176.16
2023-01-11T16:15:58.748Z,101180.69
2023-01-11T16:18:36.296Z,101175.06
2023-01-11T16:21:19.252Z,101163.91
2023-01-11T16:23:46.680Z,101167.75
2023-01-11T16:26:19.593Z,101170.16
2023-01-11T16:28:56.899Z,101168.53
2023-01-11T16:31:23.998Z,101162.53
2023-01-11T16:33:51.826Z,101173.69
2023-01-11T16:36:23.555Z,101172.53
2023-01-11T16:39:07.391Z,101165.91
2023-01-11T16:41:46.744Z,101159.28
2023-01-11T16:44:27.018Z,101174.63
2023-01-11T16:47:11.927Z,101155.22
2023-01-11T16:49:40.277Z,101167.00
2023-01-11T16:52:27.041Z,101168.63
2023-01-11T16:54:55.548Z,101169.94
2023-01-11T16:57:28.244Z,101170.91
2023-01-11T17:00:04.850Z,101182.50
2023-01-11T17:02:38.008Z,101179.94
2023-01-11T17:05:19.642Z,101172.38
2023-01-11T17:07:46.251Z,101163.78
2023-01-11T17:10:17.231Z,101153.59
2023-01-11T17:12:48.518Z,101155.22
2023-01-11T17:15:45.765Z,101154.44
2023-01-11T17:18:12.193Z,101160.41
2023-01-11T17:20:38.582Z,101156.69
2023-01-11T17:23:05.388Z,101160.06
2023-01-11T17:25:44.310Z,101153.28
2023-01-11T17:28:19.709Z,101152.00
2023-01-11T17:30:48.749Z,101148.28
2023-01-11T17:33:35.432Z,101139.56
2023-01-11T17:36:02.901Z,101137.28
2023-01-11T17:38:30.221Z,101142.78
2023-01-11T17:40:58.510Z,101138.59
2023-01-11T17:43:46.021Z,101140.03
2023-01-11T17:46:25.752Z,101136.97
2023-01-11T17:48:59.528Z,101130.53
2023-01-11T17:51:32.020Z,101137.31
2023-01-11T17:53:59.218Z,101125.03
2023-01-11T17:56:37.981Z,101122.44
2023-01-11T17:59:25.444Z,101120.50
2023-01-11T18:02:00.012Z,101127.94
2023-01-11T18:04:27.754Z,101110.78
2023-01-11T18:06:56.788Z,101106.72
2023-01-11T18:09:28.902Z,101110.31
2023-01-11T18:12:16.321Z,101098.00
2023-01-11T18:14:50.512Z,101110.47
2023-01-11T18:17:32.273Z,101105.59
2023-01-11T18:19:59.813Z,101105.97
2023-01-11T18:22:28.668Z,101103.84
2023-01-11T18:24:56.717Z,101096.91
2023-01-11T18:27:34.989Z,101096.75
2023-01-11T18:30:06.428Z,101103.22
2023-01-11T18:32:37.061Z,101088.00
2023-01-11T18:35:04.627Z,101090.06
2023-01-11T18:37:31.082Z,101087.81
2023-01-11T18:39:58.066Z,101084.09
2023-01-11T18:42:28.650Z,101080.53
2023-01-11T18:44:55.577Z,101086.53
2023-01-11T18:47:24.459Z,101082.63
2023-01-11T18:49:52.268Z,101085.06
2023-01-11T18:52:20.321Z,101061.59
2023-01-11T18:54:46.998Z,101083.09
2023-01-11T18:57:13.592Z,101072.09
2023-01-11T18:59:40.015Z,101071.63
2023-01-11T19:02:23.806Z,101077.28
2023-01-11T19:04:51.421Z,101068.03
2023-01-11T19:07:18.800Z,101061.28
2023-01-11T19:09:45.369Z,101058.84
2023-01-11T19:12:12.990Z,101057.22
2023-01-11T19:14:41.516Z,101061.59
2023-01-11T19:17:10.313Z,101042.16
2023-01-11T19:19:36.771Z,101037.00
2023-01-11T19:22:04.090Z,101020.66
2023-01-11T19:24:30.746Z,101027.28
2023-01-11T19:26:57.282Z,101011.91
2023-01-11T19:29:24.748Z,101017.28
2023-01-11T19:31:57.623Z,101005.31
2023-01-11T19:34:24.394Z,101005.31
2023-01-11T19:36:52.168Z,100998.03
2023-01-11T19:39:18.952Z,100981.38
2023-01-11T19:41:54.386Z,100994.94
2023-01-11T19:44:21.751Z,100993.47
2023-01-11T19:46:50.513Z,100999.81
2023-01-11T19:49:19.932Z,101011.28
2023-01-11T19:51:48.769Z,100998.34
2023-01-11T19:54:17.043Z,100991.38
2023-01-11T19:56:44.547Z,100978.63
2023-01-11T19:59:11.533Z,100996.22
2023-01-11T20:01:39.253Z,101001.72
2023-01-11T20:04:05.933Z,100990.25
2023-01-11T20:06:32.924Z,101001.69
2023-01-11T20:08:59.566Z,100999.44
2023-01-11T20:11:26.168Z,100985.38
2023-01-11T20:13:52.568Z,100975.50
2023-01-11T20:16:24.050Z,100983.56
2023-01-11T20:18:55.664Z,100988.25
2023-01-11T20:21:24.623Z,100982.13
2023-01-11T20:23:51.011Z,100984.38
2023-01-11T20:26:17.719Z,100979.22
2023-01-11T20:28:50.096Z,100978.25
2023-01-11T20:31:17.214Z,100974.56
2023-01-11T20:33:44.676Z,100991.66
2023-01-11T20:36:16.925Z,100995.72
2023-01-11T20:38:44.905Z,100982.16
2023-01-11T20:41:41.537Z,100989.75
2023-01-11T20:44:08.870Z,100997.50
2023-01-11T20:46:37.308Z,100995.88
2023-01-11T20:49:05.304Z,100994.91
2023-01-11T20:51:31.809Z,100992.50
2023-01-11T20:53:58.429Z,100995.72
2023-01-11T20:56:24.923Z,100994.09
2023-01-11T20:58:52.031Z,101002.34
2023-01-11T21:01:24.710Z,100993.63
2023-01-11T21:03:51.179Z,100996.19
2023-01-11T21:06:20.401Z,100996.03
2023-01-11T21:08:46.844Z,101003.66
2023-01-11T21:11:15.390Z,101007.03
2023-01-11T21:13:41.998Z,101000.09
2023-01-11T21:16:14.599Z,101005.13
2023-01-11T21:18:43.859Z,101007.72
2023-01-11T21:21:18.347Z,101005.28
2023-01-11T21:23:45.615Z,101002.53
2023-01-11T21:26:18.876Z,101001.69
2023-01-11T21:28:51.805Z,100995.88
2023-01-11T21:31:21.133Z,101000.25
2023-01-11T21:33:49.109Z,100980.38
2023-01-11T21:36:17.840Z,100986.34
2023-01-11T21:38:44.273Z,100982.00
2023-01-11T21:41:16.401Z,100988.94
2023-01-11T21:43:43.269Z,100989.75
2023-01-11T21:46:10.210Z,100993.94
2023-01-11T21:48:36.763Z,100987.66
2023-01-11T21:51:03.423Z,100990.09
2023-01-11T21:53:32.396Z,100975.38
2023-01-11T21:56:08.795Z,100976.84
2023-01-11T21:58:35.762Z,100975.84
2023-01-11T22:01:12.626Z,100973.09
2023-01-11T22:03:42.119Z,100963.59
2023-01-11T22:06:09.277Z,100961.63
2023-01-11T22:08:37.020Z,100966.66
2023-01-11T22:11:05.646Z,100960.69
2023-01-11T22:13:33.920Z,100960.34
2023-01-11T22:16:29.901Z,100952.25
2023-01-11T22:18:57.086Z,100961.00
2023-01-11T22:21:24.487Z,100966.19
2023-01-11T22:23:54.604Z,100968.09
2023-01-11T22:26:21.617Z,100970.53
2023-01-11T22:29:07.212Z,100963.44
2023-01-11T22:31:33.986Z,100968.59
2023-01-11T22:34:00.710Z,100962.59
2023-01-11T22:36:28.434Z,100963.28
2023-01-11T22:38:55.033Z,100967.47
2023-01-11T22:41:22.167Z,100964.72
2023-01-11T22:43:49.458Z,100969.72
2023-01-11T22:46:22.184Z,100973.09
2023-01-11T22:48:49.368Z,100980.22
2023-01-11T22:51:18.144Z,100973.47
2023-01-11T22:53:46.557Z,100977.66
2023-01-11T22:56:14.897Z,100982.03
2023-01-11T22:58:41.555Z,100969.09
2023-01-11T23:01:11.925Z,100967.78
2023-01-11T23:03:39.239Z,100987.50
2023-01-11T23:06:06.516Z,100997.22
2023-01-11T23:08:41.796Z,100992.69
2023-01-11T23:11:14.759Z,100989.13
2023-01-11T23:13:54.971Z,100985.56
2023-01-11T23:16:24.525Z,100991.41
2023-01-11T23:18:50.995Z,100986.06
2023-01-11T23:21:17.420Z,100986.88
2023-01-11T23:23:43.908Z,100984.94
2023-01-11T23:26:12.065Z,100991.41
2023-01-11T23:28:39.680Z,100989.28
2023-01-11T23:31:15.884Z,100995.94
2023-01-11T23:33:44.231Z,101001.13
2023-01-11T23:36:10.941Z,100984.44
2023-01-11T23:38:37.685Z,100998.34
2023-01-11T23:41:25.129Z,100988.81
2023-01-11T23:43:51.751Z,100984.44
2023-01-11T23:46:36.652Z,100986.06
2023-01-11T23:49:04.951Z,100986.88
2023-01-11T23:51:31.977Z,100978.31
2023-01-11T23:53:58.726Z,100984.91
2023-01-11T23:56:25.136Z,100979.72
2023-01-11T23:58:51.549Z,100976.03
